Time;durP1;ratioP1;P1;durP2;ratioP2;P2;SDS_P1;SDS_P2;PMS_P1;PMS_P2;Temp;Humidity;BMP_temperature;BMP_pressure;BME280_temperature;BME280_humidity;BME280_pressure;Samples;Min_cycle;Max_cycle;Signal;HPM_P1;HPM_P2
2023/04/30 00:00:38;;;;;;;6.70;6.00;;;14.60;84.50;;;;;;6033507;23;20967;-65
2023/04/30 00:03:07;;;;;;;7.63;6.80;;;14.60;84.70;;;;;;6057115;23;20482;-65
2023/04/30 00:05:36;;;;;;;6.90;6.27;;;14.60;84.50;;;;;;6034156;23;20796;-65
2023/04/30 00:08:04;;;;;;;8.50;6.17;;;14.60;84.70;;;;;;6033964;23;20845;-65
2023/04/30 00:10:33;;;;;;;7.30;6.60;;;14.60;84.60;;;;;;6057880;23;20870;-65
2023/04/30 00:13:01;;;;;;;7.17;6.50;;;14.60;84.30;;;;;;6032775;23;20764;-65
2023/04/30 00:15:31;;;;;;;8.40;7.60;;;14.60;84.60;;;;;;6032563;23;20435;-66
2023/04/30 00:17:59;;;;;;;7.30;6.60;;;14.60;84.40;;;;;;6033386;23;20886;-65
2023/04/30 00:20:28;;;;;;;7.30;6.60;;;14.60;84.30;;;;;;6034122;23;20397;-66
2023/04/30 00:22:56;;;;;;;8.13;7.37;;;14.50;84.20;;;;;;6032895;23;20960;-66
2023/04/30 00:25:24;;;;;;;5.90;5.27;;;14.60;84.50;;;;;;6033059;23;20436;-66
2023/04/30 00:27:53;;;;;;;8.27;7.47;;;14.60;84.40;;;;;;6059759;23;20424;-66
2023/04/30 00:30:21;;;;;;;7.83;7.07;;;14.60;84.50;;;;;;6034444;23;20763;-66
2023/04/30 00:32:51;;;;;;;9.33;7.30;;;14.60;84.40;;;;;;6033122;23;20741;-66
2023/04/30 00:35:19;;;;;;;6.20;5.60;;;14.50;84.30;;;;;;6033368;23;20808;-64
2023/04/30 00:37:48;;;;;;;6.03;5.53;;;14.50;84.30;;;;;;6059059;23;20798;-66
2023/04/30 00:40:16;;;;;;;7.30;6.60;;;14.50;84.40;;;;;;6033843;23;20447;-65
2023/04/30 00:42:45;;;;;;;6.47;5.87;;;14.50;84.20;;;;;;6031631;23;20432;-67
2023/04/30 00:45:16;;;;;;;6.33;5.70;;;14.50;84.50;;;;;;6033257;23;20735;-64
2023/04/30 00:47:45;;;;;;;7.50;6.70;;;14.50;84.70;;;;;;6054448;23;20436;-67
2023/04/30 00:50:15;;;;;;;5.73;5.13;;;14.50;84.40;;;;;;6031956;23;20439;-67
2023/04/30 00:52:44;;;;;;;6.40;5.80;;;14.50;84.30;;;;;;6031104;23;20432;-66
2023/04/30 00:55:13;;;;;;;7.50;6.80;;;14.50;84.40;;;;;;6030482;23;20891;-66
2023/04/30 00:57:42;;;;;;;6.87;6.17;;;14.50;84.20;;;;;;6030741;23;20433;-66
2023/04/30 01:00:12;;;;;;;5.90;5.10;;;14.50;84.20;;;;;;6031179;23;20425;-66
2023/04/30 01:02:41;;;;;;;6.63;6.03;;;14.50;84.30;;;;;;6031424;23;20416;-65
2023/04/30 01:05:10;;;;;;;7.23;6.53;;;14.50;84.20;;;;;;6030822;23;20439;-65
2023/04/30 01:07:43;;;;;;;7.03;6.43;;;14.50;84.20;;;;;;6030721;23;20373;-66
2023/04/30 01:10:14;;;;;;;6.47;5.87;;;14.50;85.60;;;;;;6031777;23;20720;-66
2023/04/30 01:12:50;;;;;;;6.73;6.03;;;14.50;84.30;;;;;;6055903;23;20941;-65
2023/04/30 01:15:24;;;;;;;6.47;5.87;;;14.50;84.20;;;;;;6030886;23;20719;-64
2023/04/30 01:17:59;;;;;;;7.27;6.37;;;14.50;84.30;;;;;;6030169;23;20946;-65
2023/04/30 01:20:29;;;;;;;7.43;6.67;;;14.50;84.30;;;;;;6056604;23;20383;-66
2023/04/30 01:23:17;;;;;;;6.10;5.60;;;14.40;84.10;;;;;;6031694;23;20413;-67
2023/04/30 01:26:01;;;;;;;6.30;5.80;;;14.50;84.10;;;;;;6030639;23;20417;-64
2023/04/30 01:28:32;;;;;;;6.97;6.27;;;14.50;84.30;;;;;;6054170;23;20441;-66
2023/04/30 01:31:01;;;;;;;6.67;6.00;;;14.40;84.20;;;;;;6030930;23;20480;-66
2023/04/30 01:33:29;;;;;;;7.50;6.80;;;14.40;84.10;;;;;;6030915;23;20429;-64
2023/04/30 01:36:24;;;;;;;6.07;5.13;;;14.40;84.10;;;;;;6030323;23;20401;-65
2023/04/30 01:39:15;;;;;;;6.77;6.17;;;14.40;84.20;;;;;;6030320;23;20443;-66
2023/04/30 01:41:54;;;;;;;6.53;5.93;;;14.40;84.00;;;;;;6030946;23;20546;-66
2023/04/30 01:44:37;;;;;;;6.10;5.50;;;14.40;84.00;;;;;;6030147;23;20440;-65
2023/04/30 01:47:17;;;;;;;6.07;5.47;;;14.40;84.10;;;;;;6030832;23;20404;-66
2023/04/30 01:49:55;;;;;;;6.33;5.73;;;14.40;84.10;;;;;;6030875;23;20462;-65
2023/04/30 01:52:32;;;;;;;6.40;5.33;;;14.40;84.20;;;;;;6056543;23;20938;-66
2023/04/30 01:55:05;;;;;;;6.43;5.80;;;14.40;84.10;;;;;;6031956;23;20385;-66
2023/04/30 01:57:37;;;;;;;7.00;6.40;;;14.40;84.00;;;;;;6031774;23;20567;-64
2023/04/30 02:00:10;;;;;;;6.70;5.93;;;14.40;84.10;;;;;;6030452;23;20424;-66
2023/04/30 02:02:42;;;;;;;7.70;6.93;;;14.40;83.90;;;;;;6033192;23;21330;-65
2023/04/30 02:05:10;;;;;;;6.83;6.23;;;14.40;83.80;;;;;;6033626;23;20429;-65
2023/04/30 02:07:41;;;;;;;6.10;5.50;;;14.40;83.90;;;;;;6034040;23;20392;-66
2023/04/30 02:10:11;;;;;;;7.30;6.37;;;14.40;84.10;;;;;;6033889;23;20496;-66
2023/04/30 02:12:40;;;;;;;6.87;5.97;;;14.40;83.90;;;;;;6058119;23;20416;-66
2023/04/30 02:15:11;;;;;;;6.00;5.40;;;14.40;83.80;;;;;;6034165;23;20913;-65
2023/04/30 02:17:41;;;;;;;6.37;5.73;;;14.40;83.80;;;;;;6033616;23;20397;-65
2023/04/30 02:20:10;;;;;;;6.10;5.47;;;14.30;83.70;;;;;;6034716;23;20909;-65
2023/04/30 02:22:39;;;;;;;6.73;6.03;;;14.30;84.00;;;;;;6034734;23;20444;-67
2023/04/30 02:25:10;;;;;;;6.83;6.23;;;14.40;83.90;;;;;;6033314;23;20405;-66
2023/04/30 02:27:39;;;;;;;6.90;6.20;;;14.40;83.80;;;;;;6033212;23;20377;-65
2023/04/30 02:30:08;;;;;;;6.43;5.83;;;14.30;85.00;;;;;;6034291;23;20439;-66
2023/04/30 02:32:38;;;;;;;6.83;6.23;;;14.30;83.90;;;;;;6032964;23;20420;-66
2023/04/30 02:35:07;;;;;;;6.10;5.43;;;14.30;83.80;;;;;;6034176;23;20425;-66
2023/04/30 02:37:35;;;;;;;6.43;5.73;;;14.30;84.00;;;;;;6033494;23;20897;-66
2023/04/30 02:40:05;;;;;;;6.17;5.60;;;14.30;83.80;;;;;;6034188;23;20380;-66
2023/04/30 02:42:33;;;;;;;6.13;5.53;;;14.30;84.00;;;;;;6034009;23;20509;-65
2023/04/30 02:45:04;;;;;;;7.93;6.30;;;14.30;83.90;;;;;;6033480;23;20388;-66
2023/04/30 02:47:32;;;;;;;6.40;5.80;;;14.30;84.00;;;;;;6032568;23;20544;-67
2023/04/30 02:50:02;;;;;;;7.57;6.87;;;14.30;83.90;;;;;;6034484;23;20425;-65
2023/04/30 02:52:31;;;;;;;6.70;5.80;;;14.30;83.80;;;;;;6034008;23;20520;-67
2023/04/30 02:55:00;;;;;;;7.80;7.10;;;14.30;83.90;;;;;;6033243;23;20712;-65
2023/04/30 02:57:28;;;;;;;6.53;5.93;;;14.30;83.80;;;;;;6034380;23;20772;-66
2023/04/30 02:59:56;;;;;;;6.70;5.47;;;14.30;83.80;;;;;;6034129;23;20397;-65
2023/04/30 03:02:25;;;;;;;6.17;5.63;;;14.30;83.90;;;;;;6031781;23;20449;-65
2023/04/30 03:04:54;;;;;;;7.23;6.50;;;14.30;83.80;;;;;;6031342;23;20816;-66
2023/04/30 03:07:24;;;;;;;6.57;5.97;;;14.30;83.70;;;;;;6032564;23;20791;-66
2023/04/30 03:09:52;;;;;;;7.03;6.30;;;14.30;83.60;;;;;;6053686;23;20412;-66
2023/04/30 03:12:21;;;;;;;6.00;5.47;;;14.30;83.70;;;;;;6031389;23;20417;-66
2023/04/30 03:14:51;;;;;;;6.50;5.90;;;14.30;83.80;;;;;;6053524;23;20432;-65
2023/04/30 03:17:19;;;;;;;6.70;6.10;;;14.30;83.70;;;;;;6054391;23;20406;-66
2023/04/30 03:19:47;;;;;;;6.20;5.60;;;14.30;83.60;;;;;;6030429;23;21062;-65
2023/04/30 03:22:18;;;;;;;7.30;6.60;;;14.30;83.50;;;;;;6031666;23;20500;-67
2023/04/30 03:24:48;;;;;;;5.50;5.03;;;14.20;83.40;;;;;;6029360;23;20437;-65
2023/04/30 03:27:16;;;;;;;6.33;5.70;;;14.20;83.40;;;;;;6031735;23;20499;-65
2023/04/30 03:29:45;;;;;;;8.53;7.40;;;14.20;83.50;;;;;;6030408;23;20835;-66
2023/04/30 03:32:13;;;;;;;7.00;6.30;;;14.20;83.50;;;;;;6030961;23;20424;-66
2023/04/30 03:34:42;;;;;;;5.80;5.20;;;14.20;83.50;;;;;;6029870;23;20433;-66
2023/04/30 03:37:10;;;;;;;8.03;5.80;;;14.20;83.40;;;;;;6031544;23;20392;-66
2023/04/30 03:39:38;;;;;;;6.93;6.33;;;14.20;83.40;;;;;;6030068;23;20507;-67
2023/04/30 03:42:08;;;;;;;6.40;5.80;;;14.20;84.70;;;;;;6030537;23;20816;-65
2023/04/30 03:44:37;;;;;;;5.67;5.17;;;14.20;83.40;;;;;;6030140;23;20440;-66
2023/04/30 03:47:06;;;;;;;5.70;5.20;;;14.20;83.40;;;;;;6029992;23;20460;-65
2023/04/30 03:49:36;;;;;;;6.10;5.50;;;14.20;83.30;;;;;;6030735;23;20455;-66
2023/04/30 03:52:05;;;;;;;5.47;4.97;;;14.20;83.30;;;;;;6030470;23;20515;-65
2023/04/30 03:54:33;;;;;;;5.90;5.33;;;14.20;83.60;;;;;;6028505;23;20524;-66
2023/04/30 03:57:03;;;;;;;5.60;5.00;;;14.20;83.60;;;;;;6031206;23;20401;-65
2023/04/30 03:59:33;;;;;;;6.00;5.40;;;14.20;83.70;;;;;;6030669;23;20443;-65
2023/04/30 04:02:01;;;;;;;5.97;4.80;;;14.10;83.20;;;;;;6030604;23;20421;-66
2023/04/30 04:04:31;;;;;;;6.03;5.43;;;14.20;83.60;;;;;;6029885;23;20831;-66
2023/04/30 04:07:00;;;;;;;5.77;5.27;;;14.20;83.50;;;;;;6055355;23;20423;-65
2023/04/30 04:09:28;;;;;;;5.40;4.90;;;14.20;83.30;;;;;;6029985;23;20436;-65
2023/04/30 04:11:57;;;;;;;6.77;6.07;;;14.10;83.40;;;;;;6030990;23;20808;-64
2023/04/30 04:14:26;;;;;;;5.93;5.33;;;14.10;83.30;;;;;;6030297;23;20436;-66
2023/04/30 04:16:58;;;;;;;8.07;6.63;;;14.10;83.10;;;;;;6030177;23;20392;-65
2023/04/30 04:19:27;;;;;;;5.73;5.10;;;14.10;83.30;;;;;;6030707;23;20439;-66
2023/04/30 04:21:58;;;;;;;6.40;5.90;;;14.10;83.50;;;;;;6031589;23;20429;-66
2023/04/30 04:24:27;;;;;;;6.60;6.00;;;14.10;83.30;;;;;;6030598;23;20436;-64
2023/04/30 04:26:55;;;;;;;6.20;5.60;;;14.10;83.40;;;;;;6056424;23;20416;-64
2023/04/30 04:29:24;;;;;;;5.20;4.70;;;14.10;83.50;;;;;;6031250;23;20807;-65
2023/04/30 04:31:54;;;;;;;5.90;5.30;;;14.10;83.90;;;;;;6055643;23;20547;-65
2023/04/30 04:34:24;;;;;;;5.33;4.93;;;14.10;83.90;;;;;;6054971;23;20954;-65
2023/04/30 04:36:52;;;;;;;5.00;4.50;;;14.10;84.10;;;;;;6032794;23;20411;-66
2023/04/30 04:39:21;;;;;;;5.40;4.90;;;14.10;84.10;;;;;;6031143;23;20786;-65
2023/04/30 04:41:50;;;;;;;5.63;4.97;;;14.10;84.00;;;;;;6031662;23;20875;-65
2023/04/30 04:44:19;;;;;;;6.17;5.57;;;14.10;83.40;;;;;;6030475;23;20934;-65
2023/04/30 04:46:52;;;;;;;5.30;4.80;;;14.00;83.40;;;;;;6055396;23;20432;-64
2023/04/30 04:49:22;;;;;;;6.10;5.47;;;14.10;83.60;;;;;;6031240;23;20447;-66
2023/04/30 04:51:52;;;;;;;5.37;4.87;;;14.00;83.20;;;;;;6032552;23;20420;-66
2023/04/30 04:54:21;;;;;;;5.77;4.30;;;14.10;83.30;;;;;;6030050;23;20440;-66
2023/04/30 04:56:50;;;;;;;5.97;5.40;;;14.10;83.40;;;;;;6032654;23;20416;-64
2023/04/30 04:59:18;;;;;;;5.67;5.07;;;14.00;83.20;;;;;;6030764;23;20437;-65
2023/04/30 05:01:49;;;;;;;5.80;5.20;;;14.00;83.20;;;;;;6031359;23;20425;-65
2023/04/30 05:04:17;;;;;;;6.20;5.60;;;14.00;83.20;;;;;;6055816;23;20494;-66
2023/04/30 05:06:47;;;;;;;5.77;5.10;;;14.00;83.20;;;;;;6032504;23;20409;-64
2023/04/30 05:09:17;;;;;;;5.63;5.03;;;14.00;83.50;;;;;;6030127;23;20433;-67
2023/04/30 05:11:47;;;;;;;5.80;5.30;;;14.00;83.60;;;;;;6032055;23;20424;-65
2023/04/30 05:14:16;;;;;;;5.60;5.10;;;14.00;83.50;;;;;;6030937;23;20451;-65
2023/04/30 05:16:45;;;;;;;5.80;5.17;;;14.00;83.40;;;;;;6030982;23;20393;-65
2023/04/30 05:19:14;;;;;;;6.00;5.10;;;14.00;83.60;;;;;;6031666;23;20440;-65
2023/04/30 05:21:42;;;;;;;5.63;5.03;;;14.00;83.50;;;;;;6031816;23;20409;-65
2023/04/30 05:24:12;;;;;;;6.00;5.40;;;14.00;83.40;;;;;;6030482;23;20445;-65
2023/04/30 05:26:41;;;;;;;6.90;5.10;;;14.00;83.50;;;;;;6031269;23;20381;-64
2023/04/30 05:29:10;;;;;;;5.80;5.13;;;14.00;83.70;;;;;;6031576;23;20495;-66
2023/04/30 05:31:39;;;;;;;5.87;5.30;;;14.00;83.50;;;;;;6056355;23;20417;-64
2023/04/30 05:34:08;;;;;;;5.50;5.00;;;14.00;83.60;;;;;;6030246;23;20432;-65
2023/04/30 05:36:36;;;;;;;6.70;5.97;;;14.00;83.70;;;;;;6031993;23;20719;-66
2023/04/30 05:39:04;;;;;;;6.33;5.73;;;14.00;83.50;;;;;;6030267;23;20781;-64
2023/04/30 05:41:34;;;;;;;5.30;4.80;;;14.00;83.50;;;;;;6055708;23;20467;-67
2023/04/30 05:44:03;;;;;;;6.40;5.90;;;14.00;83.50;;;;;;6029894;23;20467;-65
2023/04/30 05:46:34;;;;;;;4.97;4.47;;;14.00;83.60;;;;;;6030796;23;20419;-65
2023/04/30 05:49:02;;;;;;;4.80;4.40;;;14.00;83.80;;;;;;6054039;23;20509;-65
2023/04/30 05:51:31;;;;;;;5.57;5.07;;;14.00;83.60;;;;;;6031737;23;20409;-66
2023/04/30 05:54:00;;;;;;;5.77;5.17;;;14.00;83.50;;;;;;6028669;23;20817;-64
2023/04/30 05:56:28;;;;;;;5.23;4.73;;;14.00;83.50;;;;;;6030998;23;20476;-66
2023/04/30 05:58:59;;;;;;;4.90;4.43;;;14.00;83.50;;;;;;6030699;23;20461;-67
2023/04/30 06:01:28;;;;;;;5.10;4.60;;;14.00;83.50;;;;;;6030814;23;20378;-65
2023/04/30 06:03:57;;;;;;;5.13;4.73;;;14.00;83.40;;;;;;6030135;23;21001;-65
2023/04/30 06:06:26;;;;;;;6.23;5.60;;;14.00;83.60;;;;;;6030406;23;20488;-65
2023/04/30 06:08:55;;;;;;;4.97;4.50;;;14.00;83.50;;;;;;6030196;23;20444;-65
2023/04/30 06:11:25;;;;;;;5.47;4.87;;;14.00;83.60;;;;;;6031239;23;20732;-65
2023/04/30 06:13:54;;;;;;;5.23;4.73;;;14.00;83.70;;;;;;6030890;23;20745;-65
2023/04/30 06:16:24;;;;;;;5.57;4.80;;;14.00;83.60;;;;;;6030594;23;20409;-65
2023/04/30 06:18:53;;;;;;;6.17;5.57;;;14.00;83.70;;;;;;6031574;23;20444;-65
2023/04/30 06:21:24;;;;;;;5.83;5.27;;;13.90;83.40;;;;;;6031306;23;20890;-65
2023/04/30 06:23:53;;;;;;;6.73;6.03;;;14.00;83.40;;;;;;6031325;23;20800;-66
2023/04/30 06:26:21;;;;;;;5.53;5.03;;;14.00;83.40;;;;;;6030842;23;21025;-65
2023/04/30 06:28:50;;;;;;;7.30;6.40;;;13.90;83.40;;;;;;6055130;23;20934;-64
2023/04/30 06:31:18;;;;;;;5.73;5.23;;;13.90;83.10;;;;;;6030193;23;20377;-65
2023/04/30 06:33:49;;;;;;;6.00;5.30;;;13.90;83.30;;;;;;6055106;23;20620;-65
2023/04/30 06:36:18;;;;;;;6.63;5.90;;;13.90;84.50;;;;;;6054751;23;20377;-65
2023/04/30 06:38:47;;;;;;;5.40;4.80;;;13.90;83.30;;;;;;6055943;23;20449;-65
2023/04/30 06:41:15;;;;;;;5.23;4.67;;;13.90;83.10;;;;;;6030394;23;20388;-66
2023/04/30 06:43:44;;;;;;;6.80;6.00;;;13.90;83.20;;;;;;6030701;23;20437;-66
2023/04/30 06:46:13;;;;;;;5.97;5.37;;;14.00;83.10;;;;;;6029097;23;20415;-65
2023/04/30 06:48:42;;;;;;;4.90;4.50;;;14.00;82.80;;;;;;6030165;23;20441;-65
2023/04/30 06:51:12;;;;;;;6.13;5.50;;;14.00;83.00;;;;;;6054802;23;20393;-66
2023/04/30 06:53:41;;;;;;;5.83;5.20;;;14.00;83.10;;;;;;6030224;23;20465;-66
2023/04/30 06:56:09;;;;;;;5.20;4.70;;;14.00;83.10;;;;;;6030554;23;20454;-65
2023/04/30 06:58:38;;;;;;;5.37;4.73;;;14.00;83.20;;;;;;6030195;23;20444;-64
2023/04/30 07:01:06;;;;;;;5.43;4.93;;;14.00;83.30;;;;;;6030592;23;20790;-65
2023/04/30 07:03:35;;;;;;;5.60;5.03;;;14.00;83.30;;;;;;6031171;23;21377;-64
2023/04/30 07:06:05;;;;;;;5.37;4.73;;;14.00;83.20;;;;;;6054906;23;20426;-66
2023/04/30 07:08:35;;;;;;;5.30;4.80;;;14.00;83.20;;;;;;6030175;23;20453;-64
2023/04/30 07:11:03;;;;;;;5.53;4.90;;;14.00;83.10;;;;;;6030072;23;20435;-64
2023/04/30 07:13:32;;;;;;;6.03;5.43;;;14.00;83.10;;;;;;6055396;23;20444;-65
2023/04/30 07:16:01;;;;;;;5.20;4.70;;;14.00;83.10;;;;;;6030664;23;20472;-65
2023/04/30 07:18:30;;;;;;;5.53;4.83;;;14.00;83.20;;;;;;6030042;23;20515;-65
2023/04/30 07:20:58;;;;;;;4.97;4.47;;;14.10;83.30;;;;;;6030119;23;20397;-65
2023/04/30 07:23:27;;;;;;;5.00;4.50;;;14.10;83.20;;;;;;6029096;23;20460;-64
2023/04/30 07:25:59;;;;;;;5.17;4.67;;;14.10;83.20;;;;;;6029845;23;20416;-65
2023/04/30 07:28:29;;;;;;;5.40;4.53;;;14.10;83.30;;;;;;6005875;23;20519;-65
2023/04/30 07:30:59;;;;;;;5.80;4.73;;;14.10;83.10;;;;;;6030129;23;20451;-64
2023/04/30 07:33:27;;;;;;;5.93;5.33;;;14.10;83.10;;;;;;6030820;23;20432;-66
2023/04/30 07:35:57;;;;;;;12.20;10.50;;;14.10;83.10;;;;;;6029965;23;20483;-66
2023/04/30 07:38:25;;;;;;;9.87;8.87;;;14.10;82.90;;;;;;6029245;23;21223;-65
2023/04/30 07:40:54;;;;;;;32.70;18.33;;;14.20;82.80;;;;;;6030888;23;20425;-64
2023/04/30 07:43:24;;;;;;;13.90;11.07;;;14.40;83.00;;;;;;6030910;23;20428;-64
2023/04/30 07:45:53;;;;;;;13.53;10.50;;;14.40;81.50;;;;;;6027801;23;20412;-65
2023/04/30 07:48:22;;;;;;;10.57;8.77;;;14.40;81.60;;;;;;6154545;23;20469;-65
2023/04/30 07:50:50;;;;;;;14.00;8.63;;;14.30;81.60;;;;;;6030643;23;20389;-66
2023/04/30 07:53:20;;;;;;;10.97;9.50;;;14.30;81.90;;;;;;6030054;23;20421;-64
2023/04/30 07:55:48;;;;;;;10.90;8.20;;;14.30;82.10;;;;;;6053657;23;20401;-66
2023/04/30 07:58:17;;;;;;;10.20;8.50;;;14.20;82.10;;;;;;6056194;23;20475;-65
2023/04/30 08:00:47;;;;;;;13.50;10.80;;;14.20;82.30;;;;;;6031095;23;20435;-66
2023/04/30 08:03:15;;;;;;;12.90;8.63;;;14.30;83.10;;;;;;6030145;23;20746;-68
2023/04/30 08:05:45;;;;;;;9.50;8.27;;;14.30;82.50;;;;;;6129659;23;20409;-65
2023/04/30 08:08:13;;;;;;;10.07;8.80;;;14.20;82.30;;;;;;6031453;23;20911;-66
2023/04/30 08:10:42;;;;;;;9.43;8.37;;;14.20;82.30;;;;;;6028948;23;20724;-66
2023/04/30 08:13:10;;;;;;;10.70;8.60;;;14.20;82.40;;;;;;6027191;23;20448;-65
2023/04/30 08:15:39;;;;;;;10.97;8.23;;;14.20;82.50;;;;;;6028913;23;20458;-65
2023/04/30 08:18:09;;;;;;;11.60;8.37;;;14.20;82.50;;;;;;6031384;23;20405;-65
2023/04/30 08:20:38;;;;;;;7.50;6.77;;;14.20;82.50;;;;;;6031979;23;20686;-65
2023/04/30 08:23:06;;;;;;;8.87;7.87;;;14.20;82.60;;;;;;6030226;23;20839;-66
2023/04/30 08:25:35;;;;;;;8.00;6.80;;;14.20;82.60;;;;;;6030128;23;20393;-64
2023/04/30 08:28:04;;;;;;;8.47;7.03;;;14.20;82.60;;;;;;6031661;23;20410;-65
2023/04/30 08:30:32;;;;;;;8.17;6.73;;;14.20;82.60;;;;;;6027906;23;20429;-64
2023/04/30 08:33:01;;;;;;;8.27;7.47;;;14.20;82.60;;;;;;6030369;23;20471;-65
2023/04/30 08:35:31;;;;;;;7.50;6.30;;;14.20;82.60;;;;;;6030578;23;20491;-64
2023/04/30 08:37:59;;;;;;;7.23;6.53;;;14.20;82.60;;;;;;6031117;23;20442;-66
2023/04/30 08:40:28;;;;;;;8.93;6.73;;;14.20;82.60;;;;;;6030373;23;20393;-65
2023/04/30 08:43:18;;;;;;;7.37;6.67;;;14.20;82.60;;;;;;6031458;23;20921;-65
2023/04/30 08:45:48;;;;;;;6.73;5.70;;;14.20;82.60;;;;;;6029427;23;20400;-66
2023/04/30 08:48:19;;;;;;;9.23;6.40;;;14.20;82.60;;;;;;6053953;23;20440;-66
2023/04/30 08:50:48;;;;;;;6.97;5.47;;;14.20;82.60;;;;;;6030002;23;20420;-66
2023/04/30 08:53:20;;;;;;;7.60;6.80;;;14.20;82.60;;;;;;6031395;23;20412;-66
2023/04/30 08:55:48;;;;;;;7.10;6.40;;;14.20;82.60;;;;;;6056349;23;20563;-65
2023/04/30 08:58:17;;;;;;;6.93;5.73;;;14.20;82.70;;;;;;6029590;23;20965;-65
2023/04/30 09:00:45;;;;;;;10.23;6.50;;;14.20;82.70;;;;;;6030404;23;20411;-66
2023/04/30 09:03:13;;;;;;;7.03;5.57;;;14.30;82.60;;;;;;6055763;23;20412;-64
2023/04/30 09:05:42;;;;;;;7.70;5.53;;;14.30;82.60;;;;;;6054065;23;20440;-65
2023/04/30 09:08:18;;;;;;;7.40;6.20;;;14.30;82.60;;;;;;6031370;23;20488;-66
2023/04/30 09:10:46;;;;;;;7.10;5.67;;;14.30;82.90;;;;;;6029717;23;20435;-64
2023/04/30 09:13:15;;;;;;;6.37;5.77;;;14.30;82.50;;;;;;6031996;23;20492;-66
2023/04/30 09:15:44;;;;;;;7.80;7.00;;;14.30;82.60;;;;;;6029902;23;20484;-64
2023/04/30 09:18:16;;;;;;;7.53;6.83;;;14.40;82.20;;;;;;6031241;23;20389;-65
2023/04/30 09:20:57;;;;;;;8.73;7.83;;;14.60;81.40;;;;;;6030236;23;20833;-65
2023/04/30 09:23:27;;;;;;;9.53;8.53;;;14.70;80.40;;;;;;6027463;23;20459;-66
2023/04/30 09:25:56;;;;;;;11.10;10.00;;;14.80;79.80;;;;;;6031068;23;20397;-64
2023/04/30 09:28:27;;;;;;;11.23;8.20;;;14.80;79.40;;;;;;6156956;23;20775;-64
2023/04/30 09:30:58;;;;;;;10.10;8.20;;;14.80;78.60;;;;;;6028850;23;20425;-64
2023/04/30 09:33:26;;;;;;;7.70;6.87;;;14.80;79.20;;;;;;6031294;23;20441;-65
2023/04/30 09:35:55;;;;;;;10.13;8.10;;;14.70;79.60;;;;;;6031251;23;20433;-65
2023/04/30 09:38:28;;;;;;;8.40;7.60;;;14.60;79.90;;;;;;6029790;23;20408;-66
2023/04/30 09:40:59;;;;;;;9.50;7.67;;;14.50;80.30;;;;;;6031356;23;20712;-66
2023/04/30 09:43:28;;;;;;;8.40;7.37;;;14.50;80.70;;;;;;6030769;23;20413;-66
2023/04/30 09:45:58;;;;;;;8.47;6.83;;;14.40;81.00;;;;;;6029695;23;20455;-66
2023/04/30 09:48:27;;;;;;;8.90;6.47;;;14.30;81.30;;;;;;6030540;23;20819;-65
2023/04/30 09:51:03;;;;;;;9.80;6.80;;;14.40;81.40;;;;;;6029360;23;20479;-65
2023/04/30 09:53:37;;;;;;;7.17;5.60;;;14.30;81.50;;;;;;6030538;23;20486;-65
2023/04/30 09:56:07;;;;;;;6.90;6.30;;;14.30;81.70;;;;;;6029385;23;20388;-65
2023/04/30 09:58:37;;;;;;;8.90;6.47;;;14.30;81.70;;;;;;6028259;23;20445;-64
2023/04/30 10:01:10;;;;;;;6.90;5.17;;;14.30;81.80;;;;;;6029110;23;20863;-64
2023/04/30 10:03:41;;;;;;;6.60;5.87;;;14.30;81.90;;;;;;6054776;23;20894;-63
2023/04/30 10:06:12;;;;;;;6.27;5.53;;;14.30;81.80;;;;;;6029621;23;20416;-64
2023/04/30 10:08:44;;;;;;;6.90;5.60;;;14.30;81.90;;;;;;6029321;23;20550;-64
2023/04/30 10:11:18;;;;;;;6.70;6.10;;;14.30;81.60;;;;;;6030331;23;20806;-72
2023/04/30 10:13:51;;;;;;;10.33;6.10;;;14.30;81.70;;;;;;6029355;23;20494;-72
2023/04/30 10:16:29;;;;;;;6.83;6.13;;;14.30;81.60;;;;;;6028705;23;20409;-72
2023/04/30 10:19:05;;;;;;;7.20;5.63;;;14.30;81.60;;;;;;6029986;23;21009;-72
2023/04/30 10:21:34;;;;;;;10.17;5.40;;;14.30;81.70;;;;;;6055103;23;20413;-73
2023/04/30 10:24:05;;;;;;;6.37;4.87;;;14.30;81.60;;;;;;6030129;23;20436;-72
2023/04/30 10:26:34;;;;;;;6.90;6.20;;;14.30;81.60;;;;;;6055040;23;20452;-72
2023/04/30 10:29:03;;;;;;;10.10;4.83;;;14.30;81.50;;;;;;6054810;23;20455;-72
2023/04/30 10:31:33;;;;;;;6.00;4.80;;;14.30;81.50;;;;;;6030069;23;20468;-72
2023/04/30 10:34:11;;;;;;;5.43;4.90;;;14.30;81.50;;;;;;6030196;23;20810;-72
2023/04/30 10:36:43;;;;;;;7.30;4.17;;;14.30;81.50;;;;;;6030215;23;20396;-72
2023/04/30 10:39:13;;;;;;;7.37;5.60;;;14.30;81.80;;;;;;6031004;23;20498;-72
2023/04/30 10:41:45;;;;;;;5.20;4.23;;;14.30;81.80;;;;;;6055484;23;20436;-72
2023/04/30 10:44:14;;;;;;;5.73;5.17;;;14.30;81.80;;;;;;6030303;23;20448;-72
2023/04/30 10:46:43;;;;;;;4.70;4.23;;;14.30;81.80;;;;;;6030286;23;20397;-72
2023/04/30 10:49:13;;;;;;;5.10;4.17;;;14.30;81.80;;;;;;6054558;23;20464;-72
2023/04/30 10:51:46;;;;;;;4.87;4.07;;;14.20;82.00;;;;;;6031200;23;20938;-72
2023/04/30 10:54:22;;;;;;;4.67;4.27;;;14.30;82.00;;;;;;6030052;23;20495;-72
2023/04/30 10:56:51;;;;;;;5.13;4.37;;;14.30;81.90;;;;;;6030920;23;20393;-72
2023/04/30 10:59:20;;;;;;;4.70;4.10;;;14.30;81.90;;;;;;6055167;23;20950;-72
2023/04/30 11:01:56;;;;;;;6.67;4.53;;;14.30;81.90;;;;;;6030428;23;20455;-72
2023/04/30 11:04:26;;;;;;;4.43;3.90;;;14.30;82.00;;;;;;6029868;23;20929;-72
2023/04/30 11:07:12;;;;;;;7.33;4.20;;;14.30;81.90;;;;;;6054647;23;20793;-72
2023/04/30 11:09:44;;;;;;;5.80;4.50;;;14.30;81.80;;;;;;6052724;23;20471;-72
2023/04/30 11:12:15;;;;;;;5.93;4.00;;;14.30;81.10;;;;;;6054528;23;20409;-72
2023/04/30 11:14:45;;;;;;;4.70;4.17;;;14.40;81.50;;;;;;6028979;23;20479;-72
2023/04/30 11:17:22;;;;;;;4.30;3.90;;;14.30;81.40;;;;;;6053170;23;20716;-72
2023/04/30 11:19:53;;;;;;;4.30;3.57;;;14.30;81.50;;;;;;6029733;23;20535;-73
2023/04/30 11:22:24;;;;;;;4.03;3.60;;;14.30;81.70;;;;;;6030262;23;20413;-72
2023/04/30 11:25:04;;;;;;;4.93;3.43;;;14.40;81.90;;;;;;6052469;23;20440;-72
2023/04/30 11:27:34;;;;;;;3.80;3.37;;;14.40;81.90;;;;;;6031059;23;20837;-72
2023/04/30 11:30:09;;;;;;;5.87;4.33;;;14.40;82.10;;;;;;6029366;23;20413;-72
2023/04/30 11:32:39;;;;;;;5.80;3.67;;;14.40;82.10;;;;;;6027398;23;20416;-72
2023/04/30 11:35:08;;;;;;;5.23;3.63;;;14.40;81.80;;;;;;6029358;23;20775;-72
2023/04/30 11:37:38;;;;;;;3.53;3.23;;;14.40;82.10;;;;;;6027372;23;20970;-73
2023/04/30 11:40:13;;;;;;;4.43;4.03;;;14.30;82.00;;;;;;6029017;23;20895;-72
2023/04/30 11:42:43;;;;;;;4.30;3.60;;;14.40;82.10;;;;;;6029248;23;20422;-72
2023/04/30 11:45:16;;;;;;;4.40;4.00;;;14.40;82.00;;;;;;6029829;23;20385;-72
2023/04/30 11:47:47;;;;;;;3.83;3.50;;;14.40;82.00;;;;;;6027079;23;20415;-72
2023/04/30 11:50:17;;;;;;;4.50;3.40;;;14.40;82.10;;;;;;6027774;23;20512;-72
2023/04/30 11:52:50;;;;;;;3.40;3.10;;;14.40;82.00;;;;;;6026606;23;20467;-72
2023/04/30 11:55:21;;;;;;;4.20;3.40;;;14.40;82.00;;;;;;6030855;23;20397;-72
2023/04/30 11:57:52;;;;;;;4.20;3.80;;;14.40;82.10;;;;;;6054018;23;20468;-72
2023/04/30 12:00:21;;;;;;;4.67;3.57;;;14.40;82.10;;;;;;6130231;23;20396;-72
2023/04/30 12:02:50;;;;;;;4.17;3.37;;;14.40;82.10;;;;;;6050781;23;20425;-72
2023/04/30 12:05:20;;;;;;;3.93;3.53;;;14.40;82.00;;;;;;6005103;23;20408;-72
2023/04/30 12:07:50;;;;;;;4.10;3.67;;;14.50;82.00;;;;;;6029535;23;20397;-72
2023/04/30 12:10:21;;;;;;;4.10;3.67;;;14.50;82.10;;;;;;6030863;23;20412;-72
2023/04/30 12:12:51;;;;;;;4.27;3.33;;;14.40;82.00;;;;;;6028089;23;20421;-72
2023/04/30 12:15:25;;;;;;;3.57;3.20;;;14.40;81.50;;;;;;6029007;23;20863;-72
2023/04/30 12:17:55;;;;;;;3.33;2.90;;;14.50;81.90;;;;;;6029549;23;20390;-72
2023/04/30 12:20:26;;;;;;;3.53;3.23;;;14.50;82.00;;;;;;6029619;23;20780;-72
2023/04/30 12:22:54;;;;;;;3.53;3.23;;;14.50;82.00;;;;;;6054813;23;20480;-74
2023/04/30 12:25:25;;;;;;;3.43;2.67;;;14.50;82.10;;;;;;6029133;23;20440;-72
2023/04/30 12:27:54;;;;;;;3.43;3.10;;;14.50;82.10;;;;;;6055283;23;20451;-73
2023/04/30 12:30:25;;;;;;;3.20;2.90;;;14.50;82.00;;;;;;6029575;23;20476;-73
2023/04/30 12:32:57;;;;;;;3.30;2.60;;;14.60;82.00;;;;;;6054614;23;20413;-73
2023/04/30 12:35:29;;;;;;;3.97;2.90;;;14.50;81.60;;;;;;6029410;23;20377;-72
2023/04/30 12:38:04;;;;;;;4.33;2.97;;;14.50;81.90;;;;;;6029043;23;20439;-73
2023/04/30 12:40:34;;;;;;;4.70;3.33;;;14.60;81.90;;;;;;6029360;23;20468;-72
2023/04/30 12:43:04;;;;;;;4.67;3.60;;;14.60;78.80;;;;;;6029326;23;20931;-69
2023/04/30 12:45:46;;;;;;;4.82;3.55;;;14.70;74.40;;;;;;6054435;23;20627;-72
2023/04/30 12:48:16;;;;;;;6.53;2.93;;;14.90;75.70;;;;;;6032184;23;20168;-72
2023/04/30 12:50:49;;;;;;;11.50;4.03;;;15.00;74.60;;;;;;6030989;23;20633;-72
2023/04/30 12:53:18;;;;;;;11.07;3.67;;;15.00;74.70;;;;;;6031461;23;20557;-72
2023/04/30 12:56:08;;;;;;;3.20;2.70;;;14.90;75.10;;;;;;6030845;23;20817;-73
2023/04/30 12:58:37;;;;;;;4.53;3.03;;;14.90;75.80;;;;;;6032572;23;20476;-73
2023/04/30 13:01:10;;;;;;;3.40;2.80;;;14.80;76.20;;;;;;6031056;23;20413;-73